sensor_id;sensor_type;location;lat;lon;timestamp;P1;durP1;ratioP1;P2;durP2;ratioP2
22983;SDS011;11658;48.908;9.140;2023-04-30T05:02:51;8.20;;;7.40;;
22983;SDS011;11658;48.908;9.140;2023-04-30T05:05:17;8.17;;;7.37;;
22983;SDS011;11658;48.908;9.140;2023-04-30T05:07:42;7.73;;;7.03;;
22983;SDS011;11658;48.908;9.140;2023-04-30T05:10:08;8.67;;;7.63;;
22983;SDS011;11658;48.908;9.140;2023-04-30T05:12:34;8.00;;;7.20;;
22983;SDS011;11658;48.908;9.140;2023-04-30T05:14:59;8.97;;;6.90;;
22983;SDS011;11658;48.908;9.140;2023-04-30T05:17:25;8.57;;;7.67;;
22983;SDS011;11658;48.908;9.140;2023-04-30T05:19:51;7.90;;;7.10;;
22983;SDS011;11658;48.908;9.140;2023-04-30T05:22:17;8.07;;;7.27;;
22983;SDS011;11658;48.908;9.140;2023-04-30T05:24:42;7.80;;;7.00;;
22983;SDS011;11658;48.908;9.140;2023-04-30T05:27:08;8.47;;;7.47;;
22983;SDS011;11658;48.908;9.140;2023-04-30T05:29:34;9.10;;;7.13;;
22983;SDS011;11658;48.908;9.140;2023-04-30T05:32:00;7.90;;;7.17;;
22983;SDS011;11658;48.908;9.140;2023-04-30T05:34:26;7.97;;;7.17;;
22983;SDS011;11658;48.908;9.140;2023-04-30T05:36:51;8.63;;;7.73;;
22983;SDS011;11658;48.908;9.140;2023-04-30T05:39:17;8.13;;;7.33;;
22983;SDS011;11658;48.908;9.140;2023-04-30T05:41:43;8.20;;;7.50;;
22983;SDS011;11658;48.908;9.140;2023-04-30T05:44:08;7.60;;;6.90;;
22983;SDS011;11658;48.908;9.140;2023-04-30T05:46:34;8.53;;;7.57;;
22983;SDS011;11658;48.908;9.140;2023-04-30T05:49:00;7.73;;;7.03;;
22983;SDS011;11658;48.908;9.140;2023-04-30T05:51:26;7.40;;;6.63;;
22983;SDS011;11658;48.908;9.140;2023-04-30T05:53:52;7.90;;;6.73;;
22983;SDS011;11658;48.908;9.140;2023-04-30T05:56:18;8.40;;;7.33;;
22983;SDS011;11658;48.908;9.140;2023-04-30T05:58:44;7.67;;;6.97;;
22983;SDS011;11658;48.908;9.140;2023-04-30T06:01:10;7.47;;;6.30;;
22983;SDS011;11658;48.908;9.140;2023-04-30T06:03:36;7.87;;;7.07;;
22983;SDS011;11658;48.908;9.140;2023-04-30T06:06:02;7.50;;;6.70;;
22983;SDS011;11658;48.908;9.140;2023-04-30T06:08:28;7.53;;;6.83;;
22983;SDS011;11658;48.908;9.140;2023-04-30T06:10:54;8.90;;;7.60;;
22983;SDS011;11658;48.908;9.140;2023-04-30T06:13:20;8.47;;;7.57;;
22983;SDS011;11658;48.908;9.140;2023-04-30T06:15:46;8.40;;;7.50;;
22983;SDS011;11658;48.908;9.140;2023-04-30T06:18:12;7.57;;;6.87;;
22983;SDS011;11658;48.908;9.140;2023-04-30T06:20:38;7.60;;;6.90;;
22983;SDS011;11658;48.908;9.140;2023-04-30T06:23:04;8.07;;;7.30;;
22983;SDS011;11658;48.908;9.140;2023-04-30T06:25:30;7.30;;;6.60;;
22983;SDS011;11658;48.908;9.140;2023-04-30T06:27:55;8.53;;;7.57;;
22983;SDS011;11658;48.908;9.140;2023-04-30T06:30:21;8.33;;;7.00;;
22983;SDS011;11658;48.908;9.140;2023-04-30T06:32:46;9.10;;;7.40;;
22983;SDS011;11658;48.908;9.140;2023-04-30T06:35:13;8.70;;;7.53;;
22983;SDS011;11658;48.908;9.140;2023-04-30T06:37:39;8.13;;;7.33;;
22983;SDS011;11658;48.908;9.140;2023-04-30T06:40:04;7.90;;;7.20;;
22983;SDS011;11658;48.908;9.140;2023-04-30T06:42:31;8.00;;;7.30;;
22983;SDS011;11658;48.908;9.140;2023-04-30T06:44:59;8.23;;;6.90;;
22983;SDS011;11658;48.908;9.140;2023-04-30T06:47:29;8.03;;;7.23;;
22983;SDS011;11658;48.908;9.140;2023-04-30T06:50:02;8.30;;;7.50;;
22983;SDS011;11658;48.908;9.140;2023-04-30T06:52:28;8.20;;;7.27;;
22983;SDS011;11658;48.908;9.140;2023-04-30T06:54:55;9.13;;;7.67;;
22983;SDS011;11658;48.908;9.140;2023-04-30T06:57:20;7.83;;;7.10;;
22983;SDS011;11658;48.908;9.140;2023-04-30T06:59:46;8.67;;;7.03;;
22983;SDS011;11658;48.908;9.140;2023-04-30T07:02:12;8.20;;;7.30;;
22983;SDS011;11658;48.908;9.140;2023-04-30T07:04:37;8.53;;;7.27;;
22983;SDS011;11658;48.908;9.140;2023-04-30T07:07:03;8.27;;;7.47;;
22983;SDS011;11658;48.908;9.140;2023-04-30T07:09:29;9.97;;;7.60;;
22983;SDS011;11658;48.908;9.140;2023-04-30T07:11:56;7.77;;;6.97;;
22983;SDS011;11658;48.908;9.140;2023-04-30T07:14:22;10.53;;;7.07;;
22983;SDS011;11658;48.908;9.140;2023-04-30T07:16:51;9.93;;;6.83;;
22983;SDS011;11658;48.908;9.140;2023-04-30T07:19:17;7.80;;;6.47;;
22983;SDS011;11658;48.908;9.140;2023-04-30T07:21:43;8.07;;;6.77;;
22983;SDS011;11658;48.908;9.140;2023-04-30T07:24:09;7.80;;;7.10;;
22983;SDS011;11658;48.908;9.140;2023-04-30T07:26:34;9.13;;;6.80;;
22983;SDS011;11658;48.908;9.140;2023-04-30T07:29:00;6.90;;;6.27;;
22983;SDS011;11658;48.908;9.140;2023-04-30T07:31:26;7.37;;;6.57;;
22983;SDS011;11658;48.908;9.140;2023-04-30T07:33:52;6.87;;;6.17;;
22983;SDS011;11658;48.908;9.140;2023-04-30T07:36:19;6.70;;;6.00;;
22983;SDS011;11658;48.908;9.140;2023-04-30T07:38:45;7.47;;;6.47;;
22983;SDS011;11658;48.908;9.140;2023-04-30T07:41:10;6.57;;;5.93;;
22983;SDS011;11658;48.908;9.140;2023-04-30T07:43:36;7.20;;;6.33;;
22983;SDS011;11658;48.908;9.140;2023-04-30T07:46:02;6.50;;;5.83;;
22983;SDS011;11658;48.908;9.140;2023-04-30T07:48:28;6.67;;;6.07;;
22983;SDS011;11658;48.908;9.140;2023-04-30T07:50:54;6.00;;;5.50;;
22983;SDS011;11658;48.908;9.140;2023-04-30T07:53:20;6.73;;;5.37;;
22983;SDS011;11658;48.908;9.140;2023-04-30T07:55:47;6.87;;;5.27;;
22983;SDS011;11658;48.908;9.140;2023-04-30T07:58:12;6.17;;;5.47;;
22983;SDS011;11658;48.908;9.140;2023-04-30T08:00:38;6.20;;;5.03;;
22983;SDS011;11658;48.908;9.140;2023-04-30T08:03:03;6.27;;;4.93;;
22983;SDS011;11658;48.908;9.140;2023-04-30T08:05:29;5.50;;;5.00;;
22983;SDS011;11658;48.908;9.140;2023-04-30T08:07:55;5.53;;;4.93;;
22983;SDS011;11658;48.908;9.140;2023-04-30T08:10:20;4.83;;;4.43;;
22983;SDS011;11658;48.908;9.140;2023-04-30T08:12:46;5.17;;;4.67;;
22983;SDS011;11658;48.908;9.140;2023-04-30T08:15:12;6.33;;;4.20;;
22983;SDS011;11658;48.908;9.140;2023-04-30T08:17:37;4.80;;;4.30;;
22983;SDS011;11658;48.908;9.140;2023-04-30T08:20:03;5.63;;;4.70;;
22983;SDS011;11658;48.908;9.140;2023-04-30T08:22:30;5.67;;;4.67;;
22983;SDS011;11658;48.908;9.140;2023-04-30T08:24:55;5.83;;;4.03;;
22983;SDS011;11658;48.908;9.140;2023-04-30T08:27:21;4.43;;;3.90;;
22983;SDS011;11658;48.908;9.140;2023-04-30T08:29:47;4.47;;;3.90;;
22983;SDS011;11658;48.908;9.140;2023-04-30T08:32:13;4.63;;;3.83;;
22983;SDS011;11658;48.908;9.140;2023-04-30T08:34:39;5.03;;;3.97;;
22983;SDS011;11658;48.908;9.140;2023-04-30T08:37:07;4.77;;;3.80;;
22983;SDS011;11658;48.908;9.140;2023-04-30T08:39:33;4.17;;;3.77;;
22983;SDS011;11658;48.908;9.140;2023-04-30T08:42:00;4.73;;;3.80;;
22983;SDS011;11658;48.908;9.140;2023-04-30T08:44:28;4.30;;;3.87;;
22983;SDS011;11658;48.908;9.140;2023-04-30T08:46:54;3.67;;;3.07;;
22983;SDS011;11658;48.908;9.140;2023-04-30T08:49:22;3.23;;;2.93;;
22983;SDS011;11658;48.908;9.140;2023-04-30T08:51:49;3.20;;;2.57;;
22983;SDS011;11658;48.908;9.140;2023-04-30T08:54:17;2.50;;;2.30;;
22983;SDS011;11658;48.908;9.140;2023-04-30T08:56:45;2.37;;;2.17;;
22983;SDS011;11658;48.908;9.140;2023-04-30T08:59:12;2.37;;;2.17;;
22983;SDS011;11658;48.908;9.140;2023-04-30T09:01:38;2.67;;;2.37;;
22983;SDS011;11658;48.908;9.140;2023-04-30T09:04:04;2.93;;;2.50;;
22983;SDS011;11658;48.908;9.140;2023-04-30T09:06:30;3.50;;;2.50;;
22983;SDS011;11658;48.908;9.140;2023-04-30T09:08:56;3.80;;;2.80;;
22983;SDS011;11658;48.908;9.140;2023-04-30T09:11:31;4.53;;;2.90;;
22983;SDS011;11658;48.908;9.140;2023-04-30T09:13:58;2.60;;;2.40;;
22983;SDS011;11658;48.908;9.140;2023-04-30T09:16:49;3.13;;;2.70;;
22983;SDS011;11658;48.908;9.140;2023-04-30T09:19:24;3.40;;;2.30;;
22983;SDS011;11658;48.908;9.140;2023-04-30T09:21:50;4.87;;;2.90;;
22983;SDS011;11658;48.908;9.140;2023-04-30T09:24:17;2.57;;;2.37;;
22983;SDS011;11658;48.908;9.140;2023-04-30T09:26:43;2.60;;;2.40;;
22983;SDS011;11658;48.908;9.140;2023-04-30T09:29:11;2.90;;;2.37;;
22983;SDS011;11658;48.908;9.140;2023-04-30T09:31:37;2.97;;;2.10;;
22983;SDS011;11658;48.908;9.140;2023-04-30T09:34:03;2.50;;;2.20;;
22983;SDS011;11658;48.908;9.140;2023-04-30T09:36:30;2.40;;;2.20;;
22983;SDS011;11658;48.908;9.140;2023-04-30T09:39:03;3.80;;;2.67;;
22983;SDS011;11658;48.908;9.140;2023-04-30T09:41:35;3.03;;;2.77;;
22983;SDS011;11658;48.908;9.140;2023-04-30T09:44:01;2.87;;;2.60;;
22983;SDS011;11658;48.908;9.140;2023-04-30T09:46:30;5.03;;;2.80;;
22983;SDS011;11658;48.908;9.140;2023-04-30T09:49:01;2.80;;;2.40;;
22983;SDS011;11658;48.908;9.140;2023-04-30T09:51:30;2.90;;;2.60;;
22983;SDS011;11658;48.908;9.140;2023-04-30T09:53:56;3.27;;;2.40;;
22983;SDS011;11658;48.908;9.140;2023-04-30T09:56:23;3.53;;;2.37;;
22983;SDS011;11658;48.908;9.140;2023-04-30T09:58:51;2.30;;;2.10;;
22983;SDS011;11658;48.908;9.140;2023-04-30T10:01:18;3.67;;;2.70;;
22983;SDS011;11658;48.908;9.140;2023-04-30T10:03:51;3.37;;;2.43;;
22983;SDS011;11658;48.908;9.140;2023-04-30T10:06:17;3.30;;;2.23;;
22983;SDS011;11658;48.908;9.140;2023-04-30T10:08:50;2.70;;;2.50;;
22983;SDS011;11658;48.908;9.140;2023-04-30T10:11:20;2.53;;;2.33;;
22983;SDS011;11658;48.908;9.140;2023-04-30T10:13:59;2.97;;;2.30;;
22983;SDS011;11658;48.908;9.140;2023-04-30T10:16:41;2.30;;;2.10;;
22983;SDS011;11658;48.908;9.140;2023-04-30T10:19:18;3.07;;;2.57;;
22983;SDS011;11658;48.908;9.140;2023-04-30T10:21:46;2.70;;;2.33;;
22983;SDS011;11658;48.908;9.140;2023-04-30T10:24:12;3.77;;;2.40;;
22983;SDS011;11658;48.908;9.140;2023-04-30T10:26:39;2.87;;;2.37;;
22983;SDS011;11658;48.908;9.140;2023-04-30T10:29:05;2.60;;;2.40;;
22983;SDS011;11658;48.908;9.140;2023-04-30T10:31:31;2.77;;;2.43;;
22983;SDS011;11658;48.908;9.140;2023-04-30T10:34:13;3.30;;;2.37;;
22983;SDS011;11658;48.908;9.140;2023-04-30T10:36:53;2.80;;;2.50;;
22983;SDS011;11658;48.908;9.140;2023-04-30T10:39:23;3.07;;;2.30;;
22983;SDS011;11658;48.908;9.140;2023-04-30T10:41:51;4.90;;;2.30;;
22983;SDS011;11658;48.908;9.140;2023-04-30T10:44:30;2.40;;;2.20;;
22983;SDS011;11658;48.908;9.140;2023-04-30T10:47:00;3.90;;;2.20;;
22983;SDS011;11658;48.908;9.140;2023-04-30T10:49:27;3.27;;;2.13;;
22983;SDS011;11658;48.908;9.140;2023-04-30T10:51:53;2.30;;;2.10;;
22983;SDS011;11658;48.908;9.140;2023-04-30T10:54:24;3.50;;;2.30;;
22983;SDS011;11658;48.908;9.140;2023-04-30T10:57:07;2.87;;;2.13;;
22983;SDS011;11658;48.908;9.140;2023-04-30T11:02:16;3.80;;;2.30;;
22983;SDS011;11658;48.908;9.140;2023-04-30T11:07:30;2.33;;;2.13;;
22983;SDS011;11658;48.908;9.140;2023-04-30T11:09:56;2.50;;;2.30;;
22983;SDS011;11658;48.908;9.140;2023-04-30T11:12:22;2.70;;;2.50;;
22983;SDS011;11658;48.908;9.140;2023-04-30T11:14:54;2.57;;;2.20;;
22983;SDS011;11658;48.908;9.140;2023-04-30T11:17:48;3.50;;;2.40;;
22983;SDS011;11658;48.908;9.140;2023-04-30T11:20:22;2.80;;;2.50;;
22983;SDS011;11658;48.908;9.140;2023-04-30T11:22:54;3.33;;;2.47;;
22983;SDS011;11658;48.908;9.140;2023-04-30T11:25:39;4.40;;;2.60;;
22983;SDS011;11658;48.908;9.140;2023-04-30T11:30:55;3.10;;;2.77;;
22983;SDS011;11658;48.908;9.140;2023-04-30T11:33:23;3.43;;;2.60;;
22983;SDS011;11658;48.908;9.140;2023-04-30T11:35:50;3.50;;;2.60;;
22983;SDS011;11658;48.908;9.140;2023-04-30T11:38:18;2.90;;;2.60;;
22983;SDS011;11658;48.908;9.140;2023-04-30T11:40:46;2.70;;;2.50;;
22983;SDS011;11658;48.908;9.140;2023-04-30T11:43:32;3.10;;;2.67;;
22983;SDS011;11658;48.908;9.140;2023-04-30T11:46:16;3.27;;;2.50;;
22983;SDS011;11658;48.908;9.140;2023-04-30T11:48:43;3.37;;;3.07;;
22983;SDS011;11658;48.908;9.140;2023-04-30T11:51:16;3.83;;;2.90;;
22983;SDS011;11658;48.908;9.140;2023-04-30T11:53:44;3.83;;;3.00;;
22983;SDS011;11658;48.908;9.140;2023-04-30T11:56:11;3.37;;;2.90;;
22983;SDS011;11658;48.908;9.140;2023-04-30T11:58:36;3.50;;;3.20;;
22983;SDS011;11658;48.908;9.140;2023-04-30T12:01:03;3.23;;;2.77;;
22983;SDS011;11658;48.908;9.140;2023-04-30T12:03:31;3.70;;;2.70;;
22983;SDS011;11658;48.908;9.140;2023-04-30T12:05:57;3.67;;;2.67;;
22983;SDS011;11658;48.908;9.140;2023-04-30T12:08:23;3.40;;;2.77;;
22983;SDS011;11658;48.908;9.140;2023-04-30T12:10:49;3.70;;;2.60;;
22983;SDS011;11658;48.908;9.140;2023-04-30T12:13:14;3.73;;;2.97;;
22983;SDS011;11658;48.908;9.140;2023-04-30T12:15:40;3.33;;;2.67;;
22983;SDS011;11658;48.908;9.140;2023-04-30T12:18:10;3.00;;;2.47;;
22983;SDS011;11658;48.908;9.140;2023-04-30T12:20:39;2.97;;;2.53;;
22983;SDS011;11658;48.908;9.140;2023-04-30T12:23:06;2.80;;;2.43;;
22983;SDS011;11658;48.908;9.140;2023-04-30T12:25:38;2.83;;;2.50;;
22983;SDS011;11658;48.908;9.140;2023-04-30T12:28:06;2.47;;;2.20;;
22983;SDS011;11658;48.908;9.140;2023-04-30T12:30:32;2.47;;;2.27;;
22983;SDS011;11658;48.908;9.140;2023-04-30T12:32:58;2.60;;;2.40;;
22983;SDS011;11658;48.908;9.140;2023-04-30T12:35:26;4.27;;;2.40;;
22983;SDS011;11658;48.908;9.140;2023-04-30T12:38:00;3.60;;;2.40;;
22983;SDS011;11658;48.908;9.140;2023-04-30T12:40:27;2.50;;;2.20;;
22983;SDS011;11658;48.908;9.140;2023-04-30T12:48:21;3.40;;;2.50;;
22983;SDS011;11658;48.908;9.140;2023-04-30T12:50:54;2.47;;;2.27;;
22983;SDS011;11658;48.908;9.140;2023-04-30T12:53:21;2.40;;;2.20;;
22983;SDS011;11658;48.908;9.140;2023-04-30T12:58:43;2.57;;;2.37;;
22983;SDS011;11658;48.908;9.140;2023-04-30T13:01:11;2.63;;;2.43;;
22983;SDS011;11658;48.908;9.140;2023-04-30T13:03:37;4.63;;;2.70;;
22983;SDS011;11658;48.908;9.140;2023-04-30T13:06:03;2.70;;;2.20;;
22983;SDS011;11658;48.908;9.140;2023-04-30T13:08:30;3.17;;;2.30;;
22983;SDS011;11658;48.908;9.140;2023-04-30T13:10:56;4.50;;;2.43;;
22983;SDS011;11658;48.908;9.140;2023-04-30T13:13:22;2.50;;;2.30;;
22983;SDS011;11658;48.908;9.140;2023-04-30T13:15:47;2.60;;;2.40;;
22983;SDS011;11658;48.908;9.140;2023-04-30T13:18:13;2.63;;;2.43;;
22983;SDS011;11658;48.908;9.140;2023-04-30T13:20:42;2.97;;;2.03;;
22983;SDS011;11658;48.908;9.140;2023-04-30T13:23:08;3.10;;;2.20;;
22983;SDS011;11658;48.908;9.140;2023-04-30T13:25:35;3.63;;;2.33;;
22983;SDS011;11658;48.908;9.140;2023-04-30T13:28:02;2.50;;;2.30;;
22983;SDS011;11658;48.908;9.140;2023-04-30T13:30:27;2.60;;;2.40;;
22983;SDS011;11658;48.908;9.140;2023-04-30T13:32:53;2.60;;;2.13;;
22983;SDS011;11658;48.908;9.140;2023-04-30T13:35:19;3.07;;;2.30;;
22983;SDS011;11658;48.908;9.140;2023-04-30T13:37:45;2.20;;;2.00;;
22983;SDS011;11658;48.908;9.140;2023-04-30T13:40:13;3.20;;;1.90;;
22983;SDS011;11658;48.908;9.140;2023-04-30T13:42:39;3.63;;;2.20;;
22983;SDS011;11658;48.908;9.140;2023-04-30T13:45:07;2.60;;;2.40;;
22983;SDS011;11658;48.908;9.140;2023-04-30T13:47:33;2.20;;;2.00;;
22983;SDS011;11658;48.908;9.140;2023-04-30T13:49:59;2.30;;;2.10;;
22983;SDS011;11658;48.908;9.140;2023-04-30T13:52:25;2.70;;;1.80;;
22983;SDS011;11658;48.908;9.140;2023-04-30T13:54:51;2.40;;;2.20;;
22983;SDS011;11658;48.908;9.140;2023-04-30T13:57:17;3.97;;;2.07;;
22983;SDS011;11658;48.908;9.140;2023-04-30T13:59:43;2.33;;;2.10;;
22983;SDS011;11658;48.908;9.140;2023-04-30T14:02:08;3.83;;;2.30;;
22983;SDS011;11658;48.908;9.140;2023-04-30T14:04:34;4.77;;;2.57;;
22983;SDS011;11658;48.908;9.140;2023-04-30T14:07:01;2.53;;;2.33;;
22983;SDS011;11658;48.908;9.140;2023-04-30T14:09:26;3.77;;;2.17;;
22983;SDS011;11658;48.908;9.140;2023-04-30T14:11:53;3.63;;;2.30;;
22983;SDS011;11658;48.908;9.140;2023-04-30T14:14:21;2.47;;;2.20;;
22983;SDS011;11658;48.908;9.140;2023-04-30T14:16:47;3.43;;;2.27;;
22983;SDS011;11658;48.908;9.140;2023-04-30T14:19:12;2.53;;;2.13;;
22983;SDS011;11658;48.908;9.140;2023-04-30T14:21:38;3.40;;;2.50;;
22983;SDS011;11658;48.908;9.140;2023-04-30T14:24:04;2.27;;;2.07;;
22983;SDS011;11658;48.908;9.140;2023-04-30T14:26:30;2.90;;;2.07;;
22983;SDS011;11658;48.908;9.140;2023-04-30T14:28:56;2.53;;;2.33;;
22983;SDS011;11658;48.908;9.140;2023-04-30T14:31:22;3.83;;;2.40;;
22983;SDS011;11658;48.908;9.140;2023-04-30T14:33:47;2.70;;;2.50;;
22983;SDS011;11658;48.908;9.140;2023-04-30T14:36:13;2.47;;;2.27;;
22983;SDS011;11658;48.908;9.140;2023-04-30T14:38:38;3.37;;;2.50;;
22983;SDS011;11658;48.908;9.140;2023-04-30T14:41:04;4.83;;;2.70;;
22983;SDS011;11658;48.908;9.140;2023-04-30T14:43:30;2.43;;;2.23;;
22983;SDS011;11658;48.908;9.140;2023-04-30T14:45:55;3.07;;;2.30;;
22983;SDS011;11658;48.908;9.140;2023-04-30T14:48:21;3.23;;;2.27;;
22983;SDS011;11658;48.908;9.140;2023-04-30T14:50:47;2.40;;;2.20;;
22983;SDS011;11658;48.908;9.140;2023-04-30T14:53:12;3.10;;;2.13;;
22983;SDS011;11658;48.908;9.140;2023-04-30T14:55:38;2.63;;;2.10;;
22983;SDS011;11658;48.908;9.140;2023-04-30T14:58:04;2.67;;;2.10;;
22983;SDS011;11658;48.908;9.140;2023-04-30T15:00:30;2.57;;;2.00;;
22983;SDS011;11658;48.908;9.140;2023-04-30T15:02:57;2.30;;;1.90;;
22983;SDS011;11658;48.908;9.140;2023-04-30T15:05:22;2.50;;;2.30;;
22983;SDS011;11658;48.908;9.140;2023-04-30T15:07:48;2.23;;;1.90;;
22983;SDS011;11658;48.908;9.140;2023-04-30T15:10:14;2.20;;;2.00;;
22983;SDS011;11658;48.908;9.140;2023-04-30T15:12:40;3.17;;;2.00;;
22983;SDS011;11658;48.908;9.140;2023-04-30T15:15:06;3.40;;;2.10;;
22983;SDS011;11658;48.908;9.140;2023-04-30T15:17:32;2.73;;;1.97;;
22983;SDS011;11658;48.908;9.140;2023-04-30T15:20:01;2.80;;;2.10;;
22983;SDS011;11658;48.908;9.140;2023-04-30T15:22:30;3.37;;;2.00;;
22983;SDS011;11658;48.908;9.140;2023-04-30T15:24:57;2.97;;;2.00;;
22983;SDS011;11658;48.908;9.140;2023-04-30T15:27:23;2.53;;;2.00;;
22983;SDS011;11658;48.908;9.140;2023-04-30T15:29:51;2.87;;;1.97;;
22983;SDS011;11658;48.908;9.140;2023-04-30T15:32:17;2.23;;;2.03;;
22983;SDS011;11658;48.908;9.140;2023-04-30T15:34:43;2.20;;;2.00;;
22983;SDS011;11658;48.908;9.140;2023-04-30T15:37:08;2.10;;;1.90;;
22983;SDS011;11658;48.908;9.140;2023-04-30T15:39:34;2.07;;;1.97;;
22983;SDS011;11658;48.908;9.140;2023-04-30T15:41:59;2.27;;;2.00;;
22983;SDS011;11658;48.908;9.140;2023-04-30T15:44:25;2.50;;;2.30;;
22983;SDS011;11658;48.908;9.140;2023-04-30T15:46:51;2.70;;;2.20;;
22983;SDS011;11658;48.908;9.140;2023-04-30T15:49:17;2.27;;;1.90;;
22983;SDS011;11658;48.908;9.140;2023-04-30T15:51:43;2.07;;;1.83;;
22983;SDS011;11658;48.908;9.140;2023-04-30T15:54:09;2.03;;;1.80;;
22983;SDS011;11658;48.908;9.140;2023-04-30T15:56:37;2.07;;;1.87;;
22983;SDS011;11658;48.908;9.140;2023-04-30T15:59:03;2.40;;;2.20;;
22983;SDS011;11658;48.908;9.140;2023-04-30T16:01:30;3.57;;;2.00;;
22983;SDS011;11658;48.908;9.140;2023-04-30T16:03:56;2.93;;;2.10;;
22983;SDS011;11658;48.908;9.140;2023-04-30T16:06:21;2.23;;;2.03;;
22983;SDS011;11658;48.908;9.140;2023-04-30T16:08:47;3.13;;;2.23;;
22983;SDS011;11658;48.908;9.140;2023-04-30T16:11:14;3.20;;;2.40;;
22983;SDS011;11658;48.908;9.140;2023-04-30T16:13:39;2.87;;;2.47;;
22983;SDS011;11658;48.908;9.140;2023-04-30T16:16:05;3.97;;;2.53;;
22983;SDS011;11658;48.908;9.140;2023-04-30T16:18:32;2.20;;;2.00;;
22983;SDS011;11658;48.908;9.140;2023-04-30T16:20:58;3.10;;;2.00;;
22983;SDS011;11658;48.908;9.140;2023-04-30T16:23:25;2.13;;;2.00;;
22983;SDS011;11658;48.908;9.140;2023-04-30T16:25:51;2.57;;;2.00;;
22983;SDS011;11658;48.908;9.140;2023-04-30T16:28:16;2.53;;;1.90;;
22983;SDS011;11658;48.908;9.140;2023-04-30T16:30:42;3.20;;;2.40;;
22983;SDS011;11658;48.908;9.140;2023-04-30T16:33:08;2.87;;;2.20;;
22983;SDS011;11658;48.908;9.140;2023-04-30T16:35:33;3.70;;;2.07;;
22983;SDS011;11658;48.908;9.140;2023-04-30T16:37:59;3.50;;;2.10;;
22983;SDS011;11658;48.908;9.140;2023-04-30T16:40:26;2.20;;;2.00;;
22983;SDS011;11658;48.908;9.140;2023-04-30T16:42:52;3.00;;;2.00;;
22983;SDS011;11658;48.908;9.140;2023-04-30T16:45:17;4.57;;;2.10;;
22983;SDS011;11658;48.908;9.140;2023-04-30T16:47:43;2.30;;;2.10;;
22983;SDS011;11658;48.908;9.140;2023-04-30T16:50:09;2.80;;;2.17;;
22983;SDS011;11658;48.908;9.140;2023-04-30T16:52:35;3.30;;;2.10;;
22983;SDS011;11658;48.908;9.140;2023-04-30T16:55:00;2.53;;;2.10;;
22983;SDS011;11658;48.908;9.140;2023-04-30T16:57:26;3.77;;;2.20;;
22983;SDS011;11658;48.908;9.140;2023-04-30T16:59:52;2.50;;;2.30;;
22983;SDS011;11658;48.908;9.140;2023-04-30T17:02:17;3.03;;;2.60;;
22983;SDS011;11658;48.908;9.140;2023-04-30T17:04:43;4.03;;;2.40;;
22983;SDS011;11658;48.908;9.140;2023-04-30T17:07:08;2.40;;;2.20;;
22983;SDS011;11658;48.908;9.140;2023-04-30T17:09:36;3.13;;;2.00;;
22983;SDS011;11658;48.908;9.140;2023-04-30T17:12:02;3.57;;;2.30;;
22983;SDS011;11658;48.908;9.140;2023-04-30T17:14:29;2.60;;;2.40;;
22983;SDS011;11658;48.908;9.140;2023-04-30T17:16:55;2.47;;;2.27;;
22983;SDS011;11658;48.908;9.140;2023-04-30T17:19:21;2.43;;;2.20;;
22983;SDS011;11658;48.908;9.140;2023-04-30T17:21:48;3.13;;;2.20;;
22983;SDS011;11658;48.908;9.140;2023-04-30T17:24:14;3.20;;;2.37;;
22983;SDS011;11658;48.908;9.140;2023-04-30T17:26:40;2.87;;;2.20;;
22983;SDS011;11658;48.908;9.140;2023-04-30T17:29:05;3.60;;;2.43;;
22983;SDS011;11658;48.908;9.140;2023-04-30T17:31:31;2.83;;;2.57;;
22983;SDS011;11658;48.908;9.140;2023-04-30T17:33:57;2.17;;;2.00;;
22983;SDS011;11658;48.908;9.140;2023-04-30T17:36:24;3.13;;;2.30;;
22983;SDS011;11658;48.908;9.140;2023-04-30T17:38:51;3.30;;;2.30;;
22983;SDS011;11658;48.908;9.140;2023-04-30T17:41:17;2.50;;;2.30;;
22983;SDS011;11658;48.908;9.140;2023-04-30T17:43:43;2.80;;;2.60;;
22983;SDS011;11658;48.908;9.140;2023-04-30T17:46:09;2.57;;;2.33;;
22983;SDS011;11658;48.908;9.140;2023-04-30T17:48:35;4.37;;;2.53;;
22983;SDS011;11658;48.908;9.140;2023-04-30T17:51:01;2.63;;;2.43;;
22983;SDS011;11658;48.908;9.140;2023-04-30T17:53:27;4.27;;;2.50;;
22983;SDS011;11658;48.908;9.140;2023-04-30T17:55:53;3.07;;;2.80;;
22983;SDS011;11658;48.908;9.140;2023-04-30T17:58:18;3.97;;;3.10;;
22983;SDS011;11658;48.908;9.140;2023-04-30T18:00:44;2.83;;;2.60;;
22983;SDS011;11658;48.908;9.140;2023-04-30T18:03:09;3.13;;;2.60;;
22983;SDS011;11658;48.908;9.140;2023-04-30T18:05:35;3.73;;;3.07;;
22983;SDS011;11658;48.908;9.140;2023-04-30T18:08:01;3.00;;;2.57;;
22983;SDS011;11658;48.908;9.140;2023-04-30T18:10:26;3.90;;;3.17;;
22983;SDS011;11658;48.908;9.140;2023-04-30T18:12:52;4.73;;;2.93;;
22983;SDS011;11658;48.908;9.140;2023-04-30T18:15:18;5.03;;;3.10;;
22983;SDS011;11658;48.908;9.140;2023-04-30T18:17:44;4.87;;;3.30;;
22983;SDS011;11658;48.908;9.140;2023-04-30T18:20:09;4.13;;;3.00;;
22983;SDS011;11658;48.908;9.140;2023-04-30T18:22:38;3.33;;;2.87;;
22983;SDS011;11658;48.908;9.140;2023-04-30T18:25:08;4.63;;;2.47;;
22983;SDS011;11658;48.908;9.140;2023-04-30T18:27:34;5.03;;;3.93;;
22983;SDS011;11658;48.908;9.140;2023-04-30T18:30:00;4.33;;;2.90;;
22983;SDS011;11658;48.908;9.140;2023-04-30T18:32:27;2.70;;;2.50;;
22983;SDS011;11658;48.908;9.140;2023-04-30T18:34:52;4.37;;;2.70;;
22983;SDS011;11658;48.908;9.140;2023-04-30T18:37:18;3.10;;;2.70;;
22983;SDS011;11658;48.908;9.140;2023-04-30T18:39:45;3.83;;;3.20;;
22983;SDS011;11658;48.908;9.140;2023-04-30T18:42:11;3.10;;;2.80;;
22983;SDS011;11658;48.908;9.140;2023-04-30T18:44:36;3.73;;;2.87;;
22983;SDS011;11658;48.908;9.140;2023-04-30T18:47:02;4.10;;;3.20;;
22983;SDS011;11658;48.908;9.140;2023-04-30T18:49:28;4.40;;;3.40;;
22983;SDS011;11658;48.908;9.140;2023-04-30T18:51:54;4.80;;;4.23;;
22983;SDS011;11658;48.908;9.140;2023-04-30T18:54:20;5.33;;;3.73;;
22983;SDS011;11658;48.908;9.140;2023-04-30T18:56:46;4.07;;;3.67;;
22983;SDS011;11658;48.908;9.140;2023-04-30T18:59:12;5.07;;;2.87;;
22983;SDS011;11658;48.908;9.140;2023-04-30T19:01:38;3.20;;;2.90;;
22983;SDS011;11658;48.908;9.140;2023-04-30T19:04:04;2.70;;;2.50;;
22983;SDS011;11658;48.908;9.140;2023-04-30T19:06:30;3.27;;;2.97;;
22983;SDS011;11658;48.908;9.140;2023-04-30T19:08:57;5.20;;;2.80;;
22983;SDS011;11658;48.908;9.140;2023-04-30T19:11:23;3.40;;;2.50;;
22983;SDS011;11658;48.908;9.140;2023-04-30T19:13:49;2.97;;;2.77;;
22983;SDS011;11658;48.908;9.140;2023-04-30T19:16:15;3.40;;;2.83;;
22983;SDS011;11658;48.908;9.140;2023-04-30T19:18:41;3.87;;;2.70;;
22983;SDS011;11658;48.908;9.140;2023-04-30T19:21:08;3.50;;;2.80;;
22983;SDS011;11658;48.908;9.140;2023-04-30T19:23:33;3.10;;;2.80;;
22983;SDS011;11658;48.908;9.140;2023-04-30T19:25:59;4.93;;;2.77;;
22983;SDS011;11658;48.908;9.140;2023-04-30T19:28:25;4.40;;;3.00;;
22983;SDS011;11658;48.908;9.140;2023-04-30T19:30:52;3.87;;;3.57;;
22983;SDS011;11658;48.908;9.140;2023-04-30T19:33:21;4.03;;;3.63;;
22983;SDS011;11658;48.908;9.140;2023-04-30T19:35:49;4.03;;;3.60;;
22983;SDS011;11658;48.908;9.140;2023-04-30T19:38:17;4.10;;;3.70;;
22983;SDS011;11658;48.908;9.140;2023-04-30T19:40:49;6.43;;;5.40;;
22983;SDS011;11658;48.908;9.140;2023-04-30T19:43:17;5.00;;;4.50;;
22983;SDS011;11658;48.908;9.140;2023-04-30T19:45:46;5.30;;;4.80;;
22983;SDS011;11658;48.908;9.140;2023-04-30T19:48:15;4.10;;;3.70;;
22983;SDS011;11658;48.908;9.140;2023-04-30T19:50:41;3.93;;;3.53;;
22983;SDS011;11658;48.908;9.140;2023-04-30T19:53:10;4.87;;;4.23;;
22983;SDS011;11658;48.908;9.140;2023-04-30T19:55:36;5.63;;;4.67;;
22983;SDS011;11658;48.908;9.140;2023-04-30T19:58:02;5.90;;;5.30;;
22983;SDS011;11658;48.908;9.140;2023-04-30T20:00:32;9.97;;;8.93;;
22983;SDS011;11658;48.908;9.140;2023-04-30T20:03:00;7.27;;;5.60;;
22983;SDS011;11658;48.908;9.140;2023-04-30T20:05:30;4.57;;;4.17;;